sensor_id;sensor_type;location;lat;lon;timestamp;P1;durP1;ratioP1;P2;durP2;ratioP2
12774;SDS011;6451;42.630;23.382;2022-08-04T00:00:22;4.93;;;3.65;;
12774;SDS011;6451;42.630;23.382;2022-08-04T00:02:55;4.78;;;3.72;;
12774;SDS011;6451;42.630;23.382;2022-08-04T00:05:34;3.83;;;3.53;;
12774;SDS011;6451;42.630;23.382;2022-08-04T00:08:11;4.03;;;3.50;;
12774;SDS011;6451;42.630;23.382;2022-08-04T00:10:47;4.82;;;3.78;;
12774;SDS011;6451;42.630;23.382;2022-08-04T00:13:16;4.07;;;3.63;;
12774;SDS011;6451;42.630;23.382;2022-08-04T00:15:50;4.07;;;3.60;;
12774;SDS011;6451;42.630;23.382;2022-08-04T00:18:19;4.75;;;3.90;;
12774;SDS011;6451;42.630;23.382;2022-08-04T00:20:52;3.80;;;3.50;;
12774;SDS011;6451;42.630;23.382;2022-08-04T00:23:22;3.90;;;3.60;;
12774;SDS011;6451;42.630;23.382;2022-08-04T00:25:52;4.25;;;3.85;;
12774;SDS011;6451;42.630;23.382;2022-08-04T00:28:19;4.50;;;4.05;;
12774;SDS011;6451;42.630;23.382;2022-08-04T00:30:46;4.30;;;4.00;;
12774;SDS011;6451;42.630;23.382;2022-08-04T00:33:17;3.85;;;3.55;;
12774;SDS011;6451;42.630;23.382;2022-08-04T00:35:46;6.35;;;4.00;;
12774;SDS011;6451;42.630;23.382;2022-08-04T00:38:14;4.55;;;3.53;;
12774;SDS011;6451;42.630;23.382;2022-08-04T00:40:45;4.22;;;3.90;;
12774;SDS011;6451;42.630;23.382;2022-08-04T00:43:18;4.05;;;3.75;;
12774;SDS011;6451;42.630;23.382;2022-08-04T00:45:58;5.25;;;3.97;;
12774;SDS011;6451;42.630;23.382;2022-08-04T00:48:46;4.78;;;4.00;;
12774;SDS011;6451;42.630;23.382;2022-08-04T00:51:35;4.30;;;3.90;;
12774;SDS011;6451;42.630;23.382;2022-08-04T00:54:11;7.28;;;4.10;;
12774;SDS011;6451;42.630;23.382;2022-08-04T00:56:48;4.75;;;3.80;;
12774;SDS011;6451;42.630;23.382;2022-08-04T00:59:31;4.18;;;3.80;;
12774;SDS011;6451;42.630;23.382;2022-08-04T01:02:12;5.57;;;3.63;;
12774;SDS011;6451;42.630;23.382;2022-08-04T01:04:48;4.57;;;4.05;;
12774;SDS011;6451;42.630;23.382;2022-08-04T01:07:45;4.97;;;4.50;;
12774;SDS011;6451;42.630;23.382;2022-08-04T01:10:37;4.95;;;4.30;;
12774;SDS011;6451;42.630;23.382;2022-08-04T01:13:23;7.03;;;4.00;;
12774;SDS011;6451;42.630;23.382;2022-08-04T01:15:59;4.70;;;4.18;;
12774;SDS011;6451;42.630;23.382;2022-08-04T01:18:32;5.13;;;4.00;;
12774;SDS011;6451;42.630;23.382;2022-08-04T01:21:28;6.30;;;4.15;;
12774;SDS011;6451;42.630;23.382;2022-08-04T01:24:22;4.28;;;3.88;;
12774;SDS011;6451;42.630;23.382;2022-08-04T01:26:56;4.60;;;4.13;;
12774;SDS011;6451;42.630;23.382;2022-08-04T01:29:30;4.20;;;3.80;;
12774;SDS011;6451;42.630;23.382;2022-08-04T01:32:01;4.47;;;4.07;;
12774;SDS011;6451;42.630;23.382;2022-08-04T01:34:32;6.68;;;3.90;;
12774;SDS011;6451;42.630;23.382;2022-08-04T01:37:11;4.50;;;4.10;;
12774;SDS011;6451;42.630;23.382;2022-08-04T01:39:49;4.43;;;3.75;;
12774;SDS011;6451;42.630;23.382;2022-08-04T01:42:24;4.30;;;3.92;;
12774;SDS011;6451;42.630;23.382;2022-08-04T01:44:53;4.28;;;3.88;;
12774;SDS011;6451;42.630;23.382;2022-08-04T01:47:22;5.47;;;4.28;;
12774;SDS011;6451;42.630;23.382;2022-08-04T01:49:54;5.00;;;4.03;;
12774;SDS011;6451;42.630;23.382;2022-08-04T01:52:27;4.40;;;4.00;;
12774;SDS011;6451;42.630;23.382;2022-08-04T01:54:55;4.20;;;3.90;;
12774;SDS011;6451;42.630;23.382;2022-08-04T01:57:22;4.30;;;3.90;;
12774;SDS011;6451;42.630;23.382;2022-08-04T01:59:52;6.15;;;3.80;;
12774;SDS011;6451;42.630;23.382;2022-08-04T02:02:23;4.50;;;4.15;;
12774;SDS011;6451;42.630;23.382;2022-08-04T02:04:51;4.35;;;3.95;;
12774;SDS011;6451;42.630;23.382;2022-08-04T02:07:20;4.47;;;3.92;;
12774;SDS011;6451;42.630;23.382;2022-08-04T02:12:35;5.50;;;4.10;;
12774;SDS011;6451;42.630;23.382;2022-08-04T02:15:19;4.97;;;3.90;;
12774;SDS011;6451;42.630;23.382;2022-08-04T02:17:56;4.25;;;3.85;;
12774;SDS011;6451;42.630;23.382;2022-08-04T02:20:32;4.53;;;4.13;;
12774;SDS011;6451;42.630;23.382;2022-08-04T02:23:02;5.38;;;3.97;;
12774;SDS011;6451;42.630;23.382;2022-08-04T02:25:33;9.00;;;4.40;;
12774;SDS011;6451;42.630;23.382;2022-08-04T02:28:11;4.57;;;4.10;;
12774;SDS011;6451;42.630;23.382;2022-08-04T02:31:02;6.47;;;4.10;;
12774;SDS011;6451;42.630;23.382;2022-08-04T02:33:38;4.65;;;4.25;;
12774;SDS011;6451;42.630;23.382;2022-08-04T02:36:08;4.78;;;4.28;;
12774;SDS011;6451;42.630;23.382;2022-08-04T02:38:53;9.68;;;4.00;;
12774;SDS011;6451;42.630;23.382;2022-08-04T02:41:21;4.30;;;3.97;;
12774;SDS011;6451;42.630;23.382;2022-08-04T02:43:50;5.28;;;4.22;;
12774;SDS011;6451;42.630;23.382;2022-08-04T02:46:22;4.30;;;3.90;;
12774;SDS011;6451;42.630;23.382;2022-08-04T02:48:52;5.03;;;4.35;;
12774;SDS011;6451;42.630;23.382;2022-08-04T02:51:21;6.28;;;3.88;;
12774;SDS011;6451;42.630;23.382;2022-08-04T02:53:51;5.35;;;4.20;;
12774;SDS011;6451;42.630;23.382;2022-08-04T02:56:20;5.05;;;3.97;;
12774;SDS011;6451;42.630;23.382;2022-08-04T02:58:50;4.78;;;4.38;;
12774;SDS011;6451;42.630;23.382;2022-08-04T03:01:24;4.53;;;4.13;;
12774;SDS011;6451;42.630;23.382;2022-08-04T03:04:01;4.45;;;4.05;;
12774;SDS011;6451;42.630;23.382;2022-08-04T03:09:55;4.78;;;4.25;;
12774;SDS011;6451;42.630;23.382;2022-08-04T03:12:52;6.63;;;4.13;;
12774;SDS011;6451;42.630;23.382;2022-08-04T03:15:51;5.07;;;4.50;;
12774;SDS011;6451;42.630;23.382;2022-08-04T03:21:34;5.10;;;4.50;;
12774;SDS011;6451;42.630;23.382;2022-08-04T03:27:42;6.00;;;4.47;;
12774;SDS011;6451;42.630;23.382;2022-08-04T03:30:28;4.85;;;4.32;;
12774;SDS011;6451;42.630;23.382;2022-08-04T03:33:12;6.30;;;4.65;;
12774;SDS011;6451;42.630;23.382;2022-08-04T03:41:54;6.40;;;4.40;;
12774;SDS011;6451;42.630;23.382;2022-08-04T03:44:35;5.90;;;4.57;;
12774;SDS011;6451;42.630;23.382;2022-08-04T03:47:34;4.70;;;4.30;;
12774;SDS011;6451;42.630;23.382;2022-08-04T03:50:21;5.00;;;4.15;;
12774;SDS011;6451;42.630;23.382;2022-08-04T03:59:32;6.70;;;4.10;;
12774;SDS011;6451;42.630;23.382;2022-08-04T04:05:22;4.07;;;3.70;;
12774;SDS011;6451;42.630;23.382;2022-08-04T04:11:18;5.68;;;4.25;;
12774;SDS011;6451;42.630;23.382;2022-08-04T04:14:24;4.85;;;4.03;;
12774;SDS011;6451;42.630;23.382;2022-08-04T04:17:07;6.30;;;3.90;;
12774;SDS011;6451;42.630;23.382;2022-08-04T04:19:53;5.55;;;5.00;;
12774;SDS011;6451;42.630;23.382;2022-08-04T04:22:31;5.32;;;4.22;;
12774;SDS011;6451;42.630;23.382;2022-08-04T04:25:29;7.03;;;4.15;;
12774;SDS011;6451;42.630;23.382;2022-08-04T04:28:10;5.72;;;4.10;;
12774;SDS011;6451;42.630;23.382;2022-08-04T04:31:12;4.75;;;3.95;;
12774;SDS011;6451;42.630;23.382;2022-08-04T04:34:04;5.97;;;4.18;;
12774;SDS011;6451;42.630;23.382;2022-08-04T04:36:43;5.38;;;3.83;;
12774;SDS011;6451;42.630;23.382;2022-08-04T04:39:19;4.35;;;3.95;;
12774;SDS011;6451;42.630;23.382;2022-08-04T04:42:00;5.28;;;4.18;;
12774;SDS011;6451;42.630;23.382;2022-08-04T04:44:43;5.32;;;4.40;;
12774;SDS011;6451;42.630;23.382;2022-08-04T04:47:30;4.60;;;4.22;;
12774;SDS011;6451;42.630;23.382;2022-08-04T04:50:16;4.25;;;3.95;;
12774;SDS011;6451;42.630;23.382;2022-08-04T04:52:51;6.18;;;3.97;;
12774;SDS011;6451;42.630;23.382;2022-08-04T04:55:21;4.82;;;4.00;;
12774;SDS011;6451;42.630;23.382;2022-08-04T04:57:52;5.30;;;3.90;;
12774;SDS011;6451;42.630;23.382;2022-08-04T05:00:26;4.88;;;4.47;;
12774;SDS011;6451;42.630;23.382;2022-08-04T05:03:10;5.88;;;4.25;;
12774;SDS011;6451;42.630;23.382;2022-08-04T05:06:06;4.88;;;4.20;;
12774;SDS011;6451;42.630;23.382;2022-08-04T05:08:50;5.38;;;4.25;;
12774;SDS011;6451;42.630;23.382;2022-08-04T05:14:33;4.68;;;4.25;;
12774;SDS011;6451;42.630;23.382;2022-08-04T05:17:05;6.63;;;4.63;;
12774;SDS011;6451;42.630;23.382;2022-08-04T05:19:44;4.88;;;4.40;;
12774;SDS011;6451;42.630;23.382;2022-08-04T05:22:27;6.18;;;4.22;;
12774;SDS011;6451;42.630;23.382;2022-08-04T05:25:01;6.53;;;5.95;;
12774;SDS011;6451;42.630;23.382;2022-08-04T05:27:34;5.55;;;4.72;;
12774;SDS011;6451;42.630;23.382;2022-08-04T05:30:04;7.03;;;4.88;;
12774;SDS011;6451;42.630;23.382;2022-08-04T05:32:34;4.70;;;4.30;;
12774;SDS011;6451;42.630;23.382;2022-08-04T05:35:11;5.20;;;4.53;;
12774;SDS011;6451;42.630;23.382;2022-08-04T05:37:46;5.05;;;4.35;;
12774;SDS011;6451;42.630;23.382;2022-08-04T05:40:15;5.40;;;4.95;;
12774;SDS011;6451;42.630;23.382;2022-08-04T05:42:44;5.07;;;4.57;;
12774;SDS011;6451;42.630;23.382;2022-08-04T05:45:13;5.85;;;5.35;;
12774;SDS011;6451;42.630;23.382;2022-08-04T05:47:40;6.10;;;4.30;;
12774;SDS011;6451;42.630;23.382;2022-08-04T05:50:11;10.77;;;5.10;;
12774;SDS011;6451;42.630;23.382;2022-08-04T05:52:39;4.70;;;4.30;;
12774;SDS011;6451;42.630;23.382;2022-08-04T05:55:08;4.93;;;4.43;;
12774;SDS011;6451;42.630;23.382;2022-08-04T05:57:38;7.63;;;5.60;;
12774;SDS011;6451;42.630;23.382;2022-08-04T06:00:06;5.20;;;4.70;;
12774;SDS011;6451;42.630;23.382;2022-08-04T06:02:34;6.47;;;4.90;;
12774;SDS011;6451;42.630;23.382;2022-08-04T06:05:04;6.45;;;5.72;;
12774;SDS011;6451;42.630;23.382;2022-08-04T06:07:34;7.05;;;5.68;;
12774;SDS011;6451;42.630;23.382;2022-08-04T06:10:01;8.00;;;6.07;;
12774;SDS011;6451;42.630;23.382;2022-08-04T06:12:29;7.97;;;6.40;;
12774;SDS011;6451;42.630;23.382;2022-08-04T06:15:02;8.50;;;6.15;;
12774;SDS011;6451;42.630;23.382;2022-08-04T06:17:31;9.75;;;5.75;;
12774;SDS011;6451;42.630;23.382;2022-08-04T06:20:01;8.52;;;5.95;;
12774;SDS011;6451;42.630;23.382;2022-08-04T06:22:29;8.30;;;5.93;;
12774;SDS011;6451;42.630;23.382;2022-08-04T06:25:01;6.60;;;5.68;;
12774;SDS011;6451;42.630;23.382;2022-08-04T06:27:30;8.30;;;5.75;;
12774;SDS011;6451;42.630;23.382;2022-08-04T06:29:59;6.95;;;5.45;;
12774;SDS011;6451;42.630;23.382;2022-08-04T06:32:27;5.60;;;4.80;;
12774;SDS011;6451;42.630;23.382;2022-08-04T06:35:01;5.57;;;4.78;;
12774;SDS011;6451;42.630;23.382;2022-08-04T06:37:29;6.65;;;5.10;;
12774;SDS011;6451;42.630;23.382;2022-08-04T06:39:57;4.97;;;4.57;;
12774;SDS011;6451;42.630;23.382;2022-08-04T06:42:28;5.28;;;4.78;;
12774;SDS011;6451;42.630;23.382;2022-08-04T06:44:56;10.05;;;5.05;;
12774;SDS011;6451;42.630;23.382;2022-08-04T06:47:26;6.18;;;5.10;;
12774;SDS011;6451;42.630;23.382;2022-08-04T06:49:55;8.63;;;5.13;;
12774;SDS011;6451;42.630;23.382;2022-08-04T06:52:23;6.13;;;4.60;;
12774;SDS011;6451;42.630;23.382;2022-08-04T06:54:51;5.57;;;5.00;;
12774;SDS011;6451;42.630;23.382;2022-08-04T06:57:21;5.93;;;4.90;;
12774;SDS011;6451;42.630;23.382;2022-08-04T06:59:52;9.25;;;5.18;;
12774;SDS011;6451;42.630;23.382;2022-08-04T07:02:24;6.47;;;4.90;;
12774;SDS011;6451;42.630;23.382;2022-08-04T07:04:52;6.35;;;4.82;;
12774;SDS011;6451;42.630;23.382;2022-08-04T07:07:20;6.20;;;4.88;;
12774;SDS011;6451;42.630;23.382;2022-08-04T07:09:49;5.10;;;4.65;;
12774;SDS011;6451;42.630;23.382;2022-08-04T07:12:17;5.45;;;4.78;;
12774;SDS011;6451;42.630;23.382;2022-08-04T07:14:46;8.30;;;4.90;;
12774;SDS011;6451;42.630;23.382;2022-08-04T07:17:16;6.47;;;5.00;;
12774;SDS011;6451;42.630;23.382;2022-08-04T07:19:46;8.70;;;4.85;;
12774;SDS011;6451;42.630;23.382;2022-08-04T07:22:13;10.15;;;5.15;;
12774;SDS011;6451;42.630;23.382;2022-08-04T07:24:41;5.82;;;4.90;;
12774;SDS011;6451;42.630;23.382;2022-08-04T07:27:08;9.90;;;4.93;;
12774;SDS011;6451;42.630;23.382;2022-08-04T07:29:35;6.13;;;5.50;;
12774;SDS011;6451;42.630;23.382;2022-08-04T07:32:05;10.50;;;5.20;;
12774;SDS011;6451;42.630;23.382;2022-08-04T07:34:33;6.60;;;5.03;;
12774;SDS011;6451;42.630;23.382;2022-08-04T07:37:02;7.93;;;5.07;;
12774;SDS011;6451;42.630;23.382;2022-08-04T07:39:29;7.13;;;5.30;;
12774;SDS011;6451;42.630;23.382;2022-08-04T07:41:58;6.40;;;5.43;;
12774;SDS011;6451;42.630;23.382;2022-08-04T07:44:29;7.22;;;5.20;;
12774;SDS011;6451;42.630;23.382;2022-08-04T07:46:57;9.07;;;4.90;;
12774;SDS011;6451;42.630;23.382;2022-08-04T07:49:24;6.68;;;4.63;;
12774;SDS011;6451;42.630;23.382;2022-08-04T07:51:53;6.82;;;4.78;;
12774;SDS011;6451;42.630;23.382;2022-08-04T07:54:21;6.43;;;5.30;;
12774;SDS011;6451;42.630;23.382;2022-08-04T07:56:48;6.15;;;4.63;;
12774;SDS011;6451;42.630;23.382;2022-08-04T07:59:16;7.28;;;4.68;;
12774;SDS011;6451;42.630;23.382;2022-08-04T08:01:43;11.00;;;4.70;;
12774;SDS011;6451;42.630;23.382;2022-08-04T08:04:12;7.18;;;5.03;;
12774;SDS011;6451;42.630;23.382;2022-08-04T08:06:40;5.70;;;4.95;;
12774;SDS011;6451;42.630;23.382;2022-08-04T08:09:10;7.45;;;5.30;;
12774;SDS011;6451;42.630;23.382;2022-08-04T08:11:38;8.00;;;5.70;;
12774;SDS011;6451;42.630;23.382;2022-08-04T08:14:06;7.65;;;5.45;;
12774;SDS011;6451;42.630;23.382;2022-08-04T08:16:34;7.63;;;5.05;;
12774;SDS011;6451;42.630;23.382;2022-08-04T08:19:02;10.65;;;6.10;;
12774;SDS011;6451;42.630;23.382;2022-08-04T08:21:29;11.27;;;5.72;;
12774;SDS011;6451;42.630;23.382;2022-08-04T08:23:56;7.70;;;5.80;;
12774;SDS011;6451;42.630;23.382;2022-08-04T08:26:25;6.45;;;5.25;;
12774;SDS011;6451;42.630;23.382;2022-08-04T08:28:52;9.27;;;5.80;;
12774;SDS011;6451;42.630;23.382;2022-08-04T08:31:20;10.70;;;5.80;;
12774;SDS011;6451;42.630;23.382;2022-08-04T08:33:47;6.10;;;5.50;;
12774;SDS011;6451;42.630;23.382;2022-08-04T08:36:16;8.10;;;5.80;;
12774;SDS011;6451;42.630;23.382;2022-08-04T08:39:01;8.88;;;5.65;;
12774;SDS011;6451;42.630;23.382;2022-08-04T08:41:42;10.50;;;6.13;;
12774;SDS011;6451;42.630;23.382;2022-08-04T08:44:38;9.10;;;5.78;;
12774;SDS011;6451;42.630;23.382;2022-08-04T08:47:32;7.65;;;5.32;;
12774;SDS011;6451;42.630;23.382;2022-08-04T08:50:15;11.27;;;5.10;;
12774;SDS011;6451;42.630;23.382;2022-08-04T08:52:57;7.05;;;5.38;;
12774;SDS011;6451;42.630;23.382;2022-08-04T08:55:45;8.18;;;5.50;;
12774;SDS011;6451;42.630;23.382;2022-08-04T09:01:30;5.80;;;4.70;;
12774;SDS011;6451;42.630;23.382;2022-08-04T09:04:17;6.03;;;4.10;;
12774;SDS011;6451;42.630;23.382;2022-08-04T09:07:09;5.63;;;3.67;;
12774;SDS011;6451;42.630;23.382;2022-08-04T09:09:57;4.85;;;3.65;;
12774;SDS011;6451;42.630;23.382;2022-08-04T09:12:33;4.38;;;3.65;;
12774;SDS011;6451;42.630;23.382;2022-08-04T09:15:11;8.18;;;3.70;;
12774;SDS011;6451;42.630;23.382;2022-08-04T09:17:40;7.50;;;3.78;;
12774;SDS011;6451;42.630;23.382;2022-08-04T09:20:14;4.97;;;3.72;;
12774;SDS011;6451;42.630;23.382;2022-08-04T09:22:49;6.82;;;3.53;;
12774;SDS011;6451;42.630;23.382;2022-08-04T09:25:20;4.15;;;3.58;;
12774;SDS011;6451;42.630;23.382;2022-08-04T09:27:50;4.72;;;3.65;;
12774;SDS011;6451;42.630;23.382;2022-08-04T09:30:22;5.50;;;3.50;;
12774;SDS011;6451;42.630;23.382;2022-08-04T09:33:06;6.43;;;3.70;;
12774;SDS011;6451;42.630;23.382;2022-08-04T09:35:44;5.68;;;3.40;;
12774;SDS011;6451;42.630;23.382;2022-08-04T09:38:17;4.82;;;4.30;;
12774;SDS011;6451;42.630;23.382;2022-08-04T09:40:51;5.13;;;3.90;;
12774;SDS011;6451;42.630;23.382;2022-08-04T09:43:26;3.70;;;3.40;;
12774;SDS011;6451;42.630;23.382;2022-08-04T09:46:05;5.10;;;3.22;;
12774;SDS011;6451;42.630;23.382;2022-08-04T09:48:39;4.50;;;3.00;;
12774;SDS011;6451;42.630;23.382;2022-08-04T09:51:15;5.82;;;3.15;;
12774;SDS011;6451;42.630;23.382;2022-08-04T09:53:52;4.25;;;3.25;;
12774;SDS011;6451;42.630;23.382;2022-08-04T09:56:27;4.45;;;2.72;;
12774;SDS011;6451;42.630;23.382;2022-08-04T09:59:05;4.93;;;3.30;;
12774;SDS011;6451;42.630;23.382;2022-08-04T10:01:45;5.30;;;3.20;;
12774;SDS011;6451;42.630;23.382;2022-08-04T10:04:18;3.42;;;3.13;;
12774;SDS011;6451;42.630;23.382;2022-08-04T10:07:00;4.57;;;2.97;;
12774;SDS011;6451;42.630;23.382;2022-08-04T10:09:46;6.30;;;3.13;;
12774;SDS011;6451;42.630;23.382;2022-08-04T10:12:28;3.33;;;2.92;;
12774;SDS011;6451;42.630;23.382;2022-08-04T10:15:08;4.60;;;3.20;;
12774;SDS011;6451;42.630;23.382;2022-08-04T10:17:49;5.95;;;4.53;;
12774;SDS011;6451;42.630;23.382;2022-08-04T10:20:33;4.72;;;3.30;;
12774;SDS011;6451;42.630;23.382;2022-08-04T10:23:24;3.75;;;3.45;;
12774;SDS011;6451;42.630;23.382;2022-08-04T10:26:02;4.40;;;3.67;;
12774;SDS011;6451;42.630;23.382;2022-08-04T10:28:40;4.35;;;3.50;;
12774;SDS011;6451;42.630;23.382;2022-08-04T10:31:11;4.25;;;3.25;;
12774;SDS011;6451;42.630;23.382;2022-08-04T10:33:48;4.80;;;3.72;;
12774;SDS011;6451;42.630;23.382;2022-08-04T10:36:17;6.53;;;3.60;;
12774;SDS011;6451;42.630;23.382;2022-08-04T10:38:51;3.20;;;3.00;;
12774;SDS011;6451;42.630;23.382;2022-08-04T10:41:26;5.32;;;3.70;;
12774;SDS011;6451;42.630;23.382;2022-08-04T10:44:05;3.10;;;2.90;;
12774;SDS011;6451;42.630;23.382;2022-08-04T10:46:49;4.80;;;3.50;;
12774;SDS011;6451;42.630;23.382;2022-08-04T10:49:23;4.63;;;3.60;;
12774;SDS011;6451;42.630;23.382;2022-08-04T10:52:01;7.15;;;4.70;;
12774;SDS011;6451;42.630;23.382;2022-08-04T10:54:33;4.50;;;3.70;;
12774;SDS011;6451;42.630;23.382;2022-08-04T10:57:10;3.25;;;2.95;;
12774;SDS011;6451;42.630;23.382;2022-08-04T10:59:42;3.85;;;3.03;;
12774;SDS011;6451;42.630;23.382;2022-08-04T11:02:19;6.90;;;3.92;;
12774;SDS011;6451;42.630;23.382;2022-08-04T11:04:57;5.28;;;3.50;;
12774;SDS011;6451;42.630;23.382;2022-08-04T11:07:31;4.07;;;3.58;;
12774;SDS011;6451;42.630;23.382;2022-08-04T11:10:01;5.72;;;3.40;;
12774;SDS011;6451;42.630;23.382;2022-08-04T11:12:29;4.90;;;3.30;;
12774;SDS011;6451;42.630;23.382;2022-08-04T11:15:00;3.30;;;2.92;;
12774;SDS011;6451;42.630;23.382;2022-08-04T11:17:34;2.58;;;2.38;;
12774;SDS011;6451;42.630;23.382;2022-08-04T11:20:07;4.72;;;2.63;;
12774;SDS011;6451;42.630;23.382;2022-08-04T11:22:40;3.60;;;2.70;;
12774;SDS011;6451;42.630;23.382;2022-08-04T11:25:17;2.80;;;2.45;;
12774;SDS011;6451;42.630;23.382;2022-08-04T11:27:50;2.72;;;2.30;;
12774;SDS011;6451;42.630;23.382;2022-08-04T11:30:23;3.35;;;2.92;;
12774;SDS011;6451;42.630;23.382;2022-08-04T11:32:58;3.15;;;2.90;;
12774;SDS011;6451;42.630;23.382;2022-08-04T11:35:33;5.35;;;2.80;;
12774;SDS011;6451;42.630;23.382;2022-08-04T11:38:08;4.03;;;2.75;;
12774;SDS011;6451;42.630;23.382;2022-08-04T11:40:41;5.30;;;2.90;;
12774;SDS011;6451;42.630;23.382;2022-08-04T11:43:11;3.90;;;2.80;;
12774;SDS011;6451;42.630;23.382;2022-08-04T11:45:44;3.42;;;2.60;;
12774;SDS011;6451;42.630;23.382;2022-08-04T11:48:19;2.80;;;2.40;;
12774;SDS011;6451;42.630;23.382;2022-08-04T11:50:54;3.17;;;2.47;;
12774;SDS011;6451;42.630;23.382;2022-08-04T11:53:24;3.85;;;2.67;;
12774;SDS011;6451;42.630;23.382;2022-08-04T11:55:57;2.95;;;2.75;;
12774;SDS011;6451;42.630;23.382;2022-08-04T11:58:26;4.50;;;2.70;;
12774;SDS011;6451;42.630;23.382;2022-08-04T12:00:56;3.72;;;2.50;;
12774;SDS011;6451;42.630;23.382;2022-08-04T12:03:31;2.90;;;2.70;;
12774;SDS011;6451;42.630;23.382;2022-08-04T12:06:08;4.68;;;3.28;;
12774;SDS011;6451;42.630;23.382;2022-08-04T12:08:50;3.50;;;3.03;;
12774;SDS011;6451;42.630;23.382;2022-08-04T12:11:27;7.53;;;6.25;;
12774;SDS011;6451;42.630;23.382;2022-08-04T12:14:09;3.90;;;2.50;;
12774;SDS011;6451;42.630;23.382;2022-08-04T12:16:47;2.80;;;2.50;;
12774;SDS011;6451;42.630;23.382;2022-08-04T12:19:22;3.00;;;2.70;;
12774;SDS011;6451;42.630;23.382;2022-08-04T12:21:57;4.90;;;2.40;;
12774;SDS011;6451;42.630;23.382;2022-08-04T12:24:27;3.80;;;2.85;;
12774;SDS011;6451;42.630;23.382;2022-08-04T12:27:02;3.40;;;2.67;;
12774;SDS011;6451;42.630;23.382;2022-08-04T12:29:33;2.88;;;2.47;;
12774;SDS011;6451;42.630;23.382;2022-08-04T12:32:03;3.33;;;2.75;;
12774;SDS011;6451;42.630;23.382;2022-08-04T12:34:38;3.35;;;2.45;;
12774;SDS011;6451;42.630;23.382;2022-08-04T12:37:11;2.65;;;2.42;;
12774;SDS011;6451;42.630;23.382;2022-08-04T12:39:49;4.28;;;3.63;;
12774;SDS011;6451;42.630;23.382;2022-08-04T12:42:21;5.68;;;3.50;;
12774;SDS011;6451;42.630;23.382;2022-08-04T12:44:49;4.65;;;2.70;;
12774;SDS011;6451;42.630;23.382;2022-08-04T12:47:22;2.90;;;2.45;;
12774;SDS011;6451;42.630;23.382;2022-08-04T12:49:51;2.65;;;2.45;;
12774;SDS011;6451;42.630;23.382;2022-08-04T12:52:20;3.88;;;2.72;;
12774;SDS011;6451;42.630;23.382;2022-08-04T12:54:51;3.92;;;2.88;;
12774;SDS011;6451;42.630;23.382;2022-08-04T12:57:20;3.53;;;2.83;;
12774;SDS011;6451;42.630;23.382;2022-08-04T12:59:49;3.97;;;2.85;;
12774;SDS011;6451;42.630;23.382;2022-08-04T13:02:17;3.55;;;2.40;;
12774;SDS011;6451;42.630;23.382;2022-08-04T13:04:51;2.80;;;2.60;;
12774;SDS011;6451;42.630;23.382;2022-08-04T13:07:23;2.70;;;2.50;;
12774;SDS011;6451;42.630;23.382;2022-08-04T13:09:52;3.70;;;2.70;;
12774;SDS011;6451;42.630;23.382;2022-08-04T13:12:19;4.40;;;2.63;;
12774;SDS011;6451;42.630;23.382;2022-08-04T13:14:50;3.28;;;2.97;;
12774;SDS011;6451;42.630;23.382;2022-08-04T13:17:19;3.03;;;2.83;;
12774;SDS011;6451;42.630;23.382;2022-08-04T13:19:46;4.20;;;2.88;;
12774;SDS011;6451;42.630;23.382;2022-08-04T13:22:14;3.75;;;2.58;;
12774;SDS011;6451;42.630;23.382;2022-08-04T13:24:51;2.60;;;2.40;;
12774;SDS011;6451;42.630;23.382;2022-08-04T13:27:19;3.30;;;2.50;;
12774;SDS011;6451;42.630;23.382;2022-08-04T13:29:48;3.30;;;2.40;;
12774;SDS011;6451;42.630;23.382;2022-08-04T13:32:17;2.83;;;2.53;;
12774;SDS011;6451;42.630;23.382;2022-08-04T13:34:46;2.63;;;2.42;;
12774;SDS011;6451;42.630;23.382;2022-08-04T13:37:15;4.38;;;2.40;;
12774;SDS011;6451;42.630;23.382;2022-08-04T13:39:45;4.13;;;2.50;;
12774;SDS011;6451;42.630;23.382;2022-08-04T13:42:15;2.63;;;2.30;;
12774;SDS011;6451;42.630;23.382;2022-08-04T13:44:45;2.72;;;2.53;;
12774;SDS011;6451;42.630;23.382;2022-08-04T13:47:18;3.95;;;2.70;;
12774;SDS011;6451;42.630;23.382;2022-08-04T13:52:39;3.03;;;2.42;;
12774;SDS011;6451;42.630;23.382;2022-08-04T13:55:08;3.58;;;2.50;;
12774;SDS011;6451;42.630;23.382;2022-08-04T13:57:49;2.30;;;2.20;;
12774;SDS011;6451;42.630;23.382;2022-08-04T14:00:18;2.90;;;2.60;;
12774;SDS011;6451;42.630;23.382;2022-08-04T14:02:48;3.88;;;3.13;;
12774;SDS011;6451;42.630;23.382;2022-08-04T14:05:25;2.72;;;2.53;;
12774;SDS011;6451;42.630;23.382;2022-08-04T14:07:55;6.97;;;2.53;;
12774;SDS011;6451;42.630;23.382;2022-08-04T14:10:27;2.58;;;2.35;;
12774;SDS011;6451;42.630;23.382;2022-08-04T14:12:57;3.42;;;2.70;;
12774;SDS011;6451;42.630;23.382;2022-08-04T14:15:37;3.38;;;2.67;;
12774;SDS011;6451;42.630;23.382;2022-08-04T14:18:16;2.80;;;2.60;;
12774;SDS011;6451;42.630;23.382;2022-08-04T14:20:57;2.78;;;2.55;;
12774;SDS011;6451;42.630;23.382;2022-08-04T14:23:41;2.70;;;2.50;;
12774;SDS011;6451;42.630;23.382;2022-08-04T14:26:16;3.95;;;2.38;;
12774;SDS011;6451;42.630;23.382;2022-08-04T14:28:44;2.70;;;2.50;;
12774;SDS011;6451;42.630;23.382;2022-08-04T14:31:12;2.83;;;2.60;;
12774;SDS011;6451;42.630;23.382;2022-08-04T14:33:41;3.55;;;2.63;;
12774;SDS011;6451;42.630;23.382;2022-08-04T14:36:10;2.90;;;2.70;;
12774;SDS011;6451;42.630;23.382;2022-08-04T14:38:44;5.93;;;3.05;;
12774;SDS011;6451;42.630;23.382;2022-08-04T14:41:16;3.85;;;3.55;;
12774;SDS011;6451;42.630;23.382;2022-08-04T14:43:47;3.95;;;3.65;;
12774;SDS011;6451;42.630;23.382;2022-08-04T14:46:15;4.38;;;3.13;;
12774;SDS011;6451;42.630;23.382;2022-08-04T14:49:00;4.97;;;3.03;;
12774;SDS011;6451;42.630;23.382;2022-08-04T14:51:32;3.95;;;3.13;;
12774;SDS011;6451;42.630;23.382;2022-08-04T14:54:00;4.82;;;2.88;;
12774;SDS011;6451;42.630;23.382;2022-08-04T14:56:29;4.90;;;2.80;;
12774;SDS011;6451;42.630;23.382;2022-08-04T14:58:58;2.97;;;2.78;;
12774;SDS011;6451;42.630;23.382;2022-08-04T15:01:26;2.85;;;2.55;;
12774;SDS011;6451;42.630;23.382;2022-08-04T15:03:53;4.65;;;2.90;;
12774;SDS011;6451;42.630;23.382;2022-08-04T15:06:23;3.00;;;2.75;;
12774;SDS011;6451;42.630;23.382;2022-08-04T15:08:52;7.43;;;2.60;;
12774;SDS011;6451;42.630;23.382;2022-08-04T15:11:20;3.20;;;2.88;;
12774;SDS011;6451;42.630;23.382;2022-08-04T15:13:49;6.10;;;2.67;;
12774;SDS011;6451;42.630;23.382;2022-08-04T15:16:17;2.88;;;2.60;;
12774;SDS011;6451;42.630;23.382;2022-08-04T15:18:44;13.10;;;12.00;;
12774;SDS011;6451;42.630;23.382;2022-08-04T15:21:12;3.00;;;2.75;;
12774;SDS011;6451;42.630;23.382;2022-08-04T15:23:40;4.13;;;3.00;;
12774;SDS011;6451;42.630;23.382;2022-08-04T15:26:08;4.75;;;3.03;;
12774;SDS011;6451;42.630;23.382;2022-08-04T15:28:39;4.00;;;2.88;;
12774;SDS011;6451;42.630;23.382;2022-08-04T15:31:08;4.32;;;2.83;;
12774;SDS011;6451;42.630;23.382;2022-08-04T15:33:37;3.60;;;3.30;;
12774;SDS011;6451;42.630;23.382;2022-08-04T15:36:09;3.47;;;2.88;;
12774;SDS011;6451;42.630;23.382;2022-08-04T15:38:40;3.75;;;3.00;;
12774;SDS011;6451;42.630;23.382;2022-08-04T15:41:16;4.72;;;3.40;;
12774;SDS011;6451;42.630;23.382;2022-08-04T15:43:55;4.10;;;3.08;;
12774;SDS011;6451;42.630;23.382;2022-08-04T15:49:38;6.40;;;2.88;;
12774;SDS011;6451;42.630;23.382;2022-08-04T15:52:07;8.98;;;3.20;;
12774;SDS011;6451;42.630;23.382;2022-08-04T15:54:35;3.20;;;3.00;;
12774;SDS011;6451;42.630;23.382;2022-08-04T15:57:03;4.88;;;3.20;;
12774;SDS011;6451;42.630;23.382;2022-08-04T16:02:38;4.20;;;2.95;;
12774;SDS011;6451;42.630;23.382;2022-08-04T16:08:11;5.57;;;2.72;;
12774;SDS011;6451;42.630;23.382;2022-08-04T16:10:45;4.53;;;3.45;;
12774;SDS011;6451;42.630;23.382;2022-08-04T16:13:15;3.90;;;3.53;;
12774;SDS011;6451;42.630;23.382;2022-08-04T16:15:44;4.65;;;3.90;;
12774;SDS011;6451;42.630;23.382;2022-08-04T16:18:19;6.15;;;3.38;;